createdAt,value
2022-10-12T00:00:44.845Z,89.24
2022-10-12T00:04:46.074Z,89.22
2022-10-12T00:08:48.710Z,89.19
2022-10-12T00:12:49.936Z,88.88
2022-10-12T00:16:51.352Z,88.81
2022-10-12T00:21:00.386Z,89.21
2022-10-12T00:25:01.782Z,89.94
2022-10-12T00:29:03.877Z,89.77
2022-10-12T00:33:05.337Z,89.97
2022-10-12T00:37:06.604Z,90.12
2022-10-12T00:41:08.338Z,89.83
2022-10-12T00:45:10.016Z,90.02
2022-10-12T00:49:20.185Z,90.02
2022-10-12T00:53:23.768Z,89.52
2022-10-12T00:57:25.476Z,89.99
2022-10-12T01:01:27.211Z,90.03
2022-10-12T01:05:29.001Z,90.35
2022-10-12T01:09:30.344Z,90.37
2022-10-12T01:13:32.469Z,90.20
2022-10-12T01:17:45.998Z,89.49
2022-10-12T01:21:58.009Z,89.72
2022-10-12T01:26:16.859Z,90.09
2022-10-12T01:30:22.661Z,89.84
2022-10-12T01:34:34.560Z,89.78
2022-10-12T01:38:54.613Z,89.84
2022-10-12T01:42:57.261Z,89.68
2022-10-12T01:46:58.528Z,89.88
2022-10-12T01:51:02.149Z,89.78
2022-10-12T01:55:03.469Z,89.50
2022-10-12T01:59:14.356Z,89.48
2022-10-12T02:03:25.174Z,89.38
2022-10-12T02:07:32.904Z,89.42
2022-10-12T02:11:37.466Z,89.93
2022-10-12T02:15:40.060Z,89.60
2022-10-12T02:19:45.381Z,89.77
2022-10-12T02:23:47.792Z,89.61
2022-10-12T02:27:51.900Z,90.01
2022-10-12T02:31:59.020Z,90.00
2022-10-12T02:36:09.251Z,89.89
2022-10-12T02:40:12.925Z,89.67
2022-10-12T02:44:17.169Z,89.41
2022-10-12T02:48:23.419Z,89.39
2022-10-12T02:52:24.956Z,89.96
2022-10-12T02:56:26.465Z,90.46
2022-10-12T03:00:27.970Z,90.33
2022-10-12T03:04:29.218Z,90.63
2022-10-12T03:08:30.496Z,90.47
2022-10-12T03:12:31.732Z,90.91
2022-10-12T03:16:33.323Z,90.25
2022-10-12T03:20:34.642Z,90.38
2022-10-12T03:24:35.921Z,90.02
2022-10-12T03:28:37.224Z,89.74
2022-10-12T03:32:40.174Z,90.01
2022-10-12T03:36:41.437Z,90.02
2022-10-12T03:40:43.045Z,90.15
2022-10-12T03:44:44.391Z,90.34
2022-10-12T03:48:46.087Z,90.59
2022-10-12T03:52:47.549Z,90.45
2022-10-12T03:56:48.831Z,90.40
2022-10-12T04:00:53.195Z,90.70
2022-10-12T04:04:54.531Z,90.45
2022-10-12T04:08:55.756Z,90.41
2022-10-12T04:12:57.460Z,90.26
2022-10-12T04:16:59.691Z,90.15
2022-10-12T04:21:01.345Z,89.77
2022-10-12T04:25:02.636Z,89.46
2022-10-12T04:29:04.371Z,89.96
2022-10-12T04:33:05.718Z,90.37
2022-10-12T04:37:07.404Z,90.63
2022-10-12T04:41:08.624Z,90.62
2022-10-12T04:45:10.096Z,90.46
2022-10-12T04:49:11.400Z,90.63
2022-10-12T04:53:13.153Z,90.58
2022-10-12T04:57:14.385Z,90.33
2022-10-12T05:01:15.754Z,90.55
2022-10-12T05:05:17.104Z,90.49
2022-10-12T05:09:18.464Z,91.00
2022-10-12T05:13:19.736Z,91.11
2022-10-12T05:17:21.008Z,91.24
2022-10-12T05:21:22.260Z,91.01
2022-10-12T05:25:23.648Z,90.81
2022-10-12T05:29:24.978Z,90.58
2022-10-12T05:33:26.641Z,90.59
2022-10-12T05:37:28.052Z,90.70
2022-10-12T05:41:29.309Z,91.33
2022-10-12T05:45:30.623Z,91.75
2022-10-12T05:49:32.584Z,91.87
2022-10-12T05:53:33.933Z,92.47
2022-10-12T05:57:36.876Z,92.62
2022-10-12T06:01:38.180Z,92.44
2022-10-12T06:05:39.505Z,92.62
2022-10-12T06:09:40.900Z,92.02
2022-10-12T06:13:42.380Z,92.25
2022-10-12T06:17:43.628Z,92.45
2022-10-12T06:21:44.950Z,92.75
2022-10-12T06:25:50.082Z,93.66
2022-10-12T06:29:52.466Z,93.74
2022-10-12T06:33:53.916Z,93.63
2022-10-12T06:37:55.214Z,93.58
2022-10-12T06:41:56.556Z,93.70
2022-10-12T06:46:04.108Z,93.80
2022-10-12T06:50:05.828Z,94.11
2022-10-12T06:54:07.312Z,94.05
2022-10-12T06:58:08.707Z,93.50
2022-10-12T07:02:11.398Z,93.38
2022-10-12T07:06:13.861Z,93.22
2022-10-12T07:10:15.456Z,92.96
2022-10-12T07:14:16.725Z,92.98
2022-10-12T07:18:18.015Z,93.04
2022-10-12T07:22:19.252Z,93.30
2022-10-12T07:26:20.519Z,93.43
2022-10-12T07:30:21.793Z,93.43
2022-10-12T07:34:23.067Z,93.75
2022-10-12T07:38:24.370Z,93.54
2022-10-12T07:42:25.649Z,93.10
2022-10-12T07:46:27.052Z,92.77
2022-10-12T07:50:28.359Z,92.35
2022-10-12T07:54:30.143Z,92.21
2022-10-12T07:58:32.059Z,91.78
2022-10-12T08:02:33.330Z,91.80
2022-10-12T08:06:34.650Z,91.76
2022-10-12T08:10:35.981Z,91.24
2022-10-12T08:14:38.438Z,90.42
2022-10-12T08:18:39.809Z,90.42
2022-10-12T08:22:41.127Z,90.70
2022-10-12T08:26:42.415Z,90.84
2022-10-12T08:30:43.689Z,90.86
2022-10-12T08:34:44.960Z,90.46
2022-10-12T08:38:50.742Z,90.14
2022-10-12T08:43:15.323Z,90.06
2022-10-12T08:47:34.423Z,87.48
2022-10-12T08:51:40.229Z,85.62
2022-10-12T08:55:46.069Z,85.20
2022-10-12T08:59:47.539Z,83.91
2022-10-12T09:03:58.428Z,83.26
2022-10-12T09:08:04.131Z,83.04
2022-10-12T09:12:05.474Z,82.36
2022-10-12T09:16:14.096Z,81.72
2022-10-12T09:20:22.008Z,80.76
2022-10-12T09:24:25.561Z,80.33
2022-10-12T09:28:37.653Z,80.27
2022-10-12T09:32:43.608Z,80.21
2022-10-12T09:36:45.440Z,79.92
2022-10-12T09:40:47.348Z,79.86
2022-10-12T09:44:49.906Z,80.57
2022-10-12T09:48:58.501Z,80.77
2022-10-12T09:53:01.093Z,80.42
2022-10-12T09:57:02.573Z,80.17
2022-10-12T10:01:16.307Z,79.44
2022-10-12T10:05:28.051Z,79.99
2022-10-12T10:09:33.301Z,79.19
2022-10-12T10:13:37.689Z,79.17
2022-10-12T10:17:39.549Z,78.91
2022-10-12T10:21:40.906Z,77.90
2022-10-12T10:25:43.881Z,77.03
2022-10-12T10:29:45.482Z,76.34
2022-10-12T10:34:03.844Z,77.05
2022-10-12T10:38:05.213Z,77.64
2022-10-12T10:42:11.147Z,77.57
2022-10-12T10:46:13.404Z,76.16
2022-10-12T10:50:25.892Z,74.57
2022-10-12T10:54:28.981Z,75.47
2022-10-12T10:58:34.184Z,75.56
2022-10-12T11:02:40.368Z,75.16
2022-10-12T11:06:43.365Z,75.49
2022-10-12T11:10:44.658Z,75.29
2022-10-12T11:14:48.829Z,73.97
2022-10-12T11:18:53.215Z,73.14
2022-10-12T11:22:57.832Z,73.54
2022-10-12T11:27:08.298Z,73.54
2022-10-12T11:31:31.004Z,73.61
2022-10-12T11:35:34.883Z,72.44
2022-10-12T11:39:40.160Z,72.45
2022-10-12T11:43:49.664Z,72.16
2022-10-12T11:47:53.892Z,72.42
2022-10-12T11:51:57.781Z,72.28
2022-10-12T11:56:22.388Z,72.42
2022-10-12T12:00:27.757Z,73.10
2022-10-12T12:04:47.379Z,73.15
2022-10-12T12:08:54.942Z,71.72
2022-10-12T12:13:15.205Z,72.06
2022-10-12T12:17:19.641Z,72.68
2022-10-12T12:21:20.924Z,72.62
2022-10-12T12:25:32.149Z,70.65
2022-10-12T12:29:33.531Z,71.10
2022-10-12T12:33:36.032Z,71.76
2022-10-12T12:37:37.721Z,70.62
2022-10-12T12:42:00.558Z,70.65
2022-10-12T12:46:14.860Z,71.59
2022-10-12T12:50:34.060Z,70.93
2022-10-12T12:54:37.038Z,71.63
2022-10-12T12:58:38.289Z,71.41
2022-10-12T13:02:58.728Z,70.48
2022-10-12T13:07:12.206Z,69.57
2022-10-12T13:11:28.977Z,69.66
2022-10-12T13:15:33.234Z,70.64
2022-10-12T13:19:36.131Z,70.84
2022-10-12T13:23:37.691Z,69.89
2022-10-12T13:28:05.355Z,69.80
2022-10-12T13:32:14.019Z,69.12
2022-10-12T13:36:18.396Z,69.77
2022-10-12T13:40:30.330Z,70.28
2022-10-12T13:44:34.618Z,70.54
2022-10-12T13:49:00.874Z,70.07
2022-10-12T13:52:57.144Z,69.83
2022-10-12T13:57:00.563Z,70.37
2022-10-12T14:01:03.361Z,70.79
2022-10-12T14:05:08.244Z,70.62
2022-10-12T14:09:12.526Z,69.81
2022-10-12T14:13:15.594Z,69.71
2022-10-12T14:17:20.536Z,69.77
2022-10-12T14:21:33.298Z,71.07
2022-10-12T14:25:36.256Z,71.22
2022-10-12T14:29:42.465Z,70.30
2022-10-12T14:33:43.952Z,70.16
2022-10-12T14:37:46.004Z,71.03
2022-10-12T14:41:50.897Z,71.73
2022-10-12T14:45:52.153Z,71.98
2022-10-12T14:49:54.844Z,71.89
2022-10-12T14:53:59.880Z,72.69
2022-10-12T14:58:01.324Z,72.66
2022-10-12T15:02:02.635Z,72.59
2022-10-12T15:06:04.305Z,72.62
2022-10-12T15:10:05.807Z,73.39
2022-10-12T15:14:08.949Z,74.12
2022-10-12T15:18:10.737Z,74.61
2022-10-12T15:22:15.332Z,74.23
2022-10-12T15:26:18.021Z,75.40
2022-10-12T15:30:19.761Z,75.39
2022-10-12T15:34:21.084Z,74.41
2022-10-12T15:38:22.493Z,74.24
2022-10-12T15:42:23.729Z,73.77
2022-10-12T15:46:25.894Z,72.44
2022-10-12T15:50:31.738Z,71.58
2022-10-12T15:54:33.237Z,72.50
2022-10-12T15:58:34.476Z,73.87
2022-10-12T16:02:35.785Z,75.67
2022-10-12T16:06:37.048Z,77.05
2022-10-12T16:10:39.948Z,78.43
2022-10-12T16:14:41.216Z,79.04
2022-10-12T16:18:42.651Z,79.92
2022-10-12T16:22:44.478Z,80.54
2022-10-12T16:26:47.284Z,81.32
2022-10-12T16:30:49.585Z,81.47
2022-10-12T16:34:51.896Z,82.33
2022-10-12T16:38:53.337Z,82.81
2022-10-12T16:42:54.722Z,83.13
2022-10-12T16:46:56.020Z,83.85
2022-10-12T16:50:57.354Z,84.16
2022-10-12T16:54:58.610Z,84.28
2022-10-12T16:59:00.252Z,84.80
2022-10-12T17:03:01.534Z,86.02
2022-10-12T17:07:02.961Z,86.21
2022-10-12T17:11:05.265Z,85.66
2022-10-12T17:15:07.121Z,86.82
2022-10-12T17:19:08.527Z,86.78
2022-10-12T17:23:09.816Z,87.20
2022-10-12T17:27:12.306Z,88.32
2022-10-12T17:31:13.861Z,88.75
2022-10-12T17:35:15.118Z,89.09
2022-10-12T17:39:16.751Z,89.11
2022-10-12T17:43:18.617Z,88.59
2022-10-12T17:47:20.103Z,88.89
2022-10-12T17:51:21.756Z,89.07
2022-10-12T17:55:47.041Z,89.45
2022-10-12T17:59:44.584Z,89.76
2022-10-12T18:03:47.494Z,89.49
2022-10-12T18:07:48.724Z,89.35
2022-10-12T18:11:50.032Z,89.95
2022-10-12T18:15:51.289Z,89.98
2022-10-12T18:19:52.632Z,90.07
2022-10-12T18:23:54.390Z,89.56
2022-10-12T18:27:55.671Z,89.12
2022-10-12T18:31:57.752Z,89.81
2022-10-12T18:36:06.260Z,90.42
2022-10-12T18:40:07.986Z,91.36
2022-10-12T18:44:09.625Z,90.90
2022-10-12T18:48:14.953Z,90.91
2022-10-12T18:52:16.579Z,91.16
2022-10-12T18:56:18.885Z,91.13
2022-10-12T19:00:20.302Z,91.11
2022-10-12T19:04:21.633Z,91.64
2022-10-12T19:08:23.033Z,92.27
2022-10-12T19:12:24.271Z,91.94
2022-10-12T19:16:25.943Z,91.80
2022-10-12T19:20:27.260Z,92.35
2022-10-12T19:24:28.725Z,92.43
2022-10-12T19:28:30.374Z,93.06
2022-10-12T19:32:32.596Z,92.46
2022-10-12T19:36:34.265Z,92.58
2022-10-12T19:40:35.744Z,92.85
2022-10-12T19:44:37.125Z,92.74
2022-10-12T19:48:39.144Z,92.78
2022-10-12T19:52:40.380Z,93.46
2022-10-12T19:56:41.735Z,92.94
2022-10-12T20:00:43.064Z,93.83
2022-10-12T20:04:44.450Z,93.35
2022-10-12T20:08:46.248Z,93.36
2022-10-12T20:12:47.768Z,93.40
2022-10-12T20:16:48.998Z,92.44
2022-10-12T20:20:50.812Z,92.48
2022-10-12T20:24:52.064Z,92.10
2022-10-12T20:28:54.064Z,92.46
2022-10-12T20:32:55.825Z,92.98
2022-10-12T20:36:57.573Z,92.79
2022-10-12T20:41:10.262Z,92.76
2022-10-12T20:45:14.381Z,92.98
2022-10-12T20:49:15.609Z,92.58
2022-10-12T20:53:16.924Z,92.52
2022-10-12T20:57:18.817Z,92.67
2022-10-12T21:01:20.304Z,92.44
2022-10-12T21:05:21.665Z,92.45
2022-10-12T21:09:23.188Z,92.58
2022-10-12T21:13:24.528Z,92.65
2022-10-12T21:17:26.214Z,92.56
2022-10-12T21:21:28.208Z,92.46
2022-10-12T21:25:29.580Z,92.52
2022-10-12T21:29:30.914Z,93.01
2022-10-12T21:33:33.205Z,92.99
2022-10-12T21:37:34.439Z,92.87
2022-10-12T21:41:35.708Z,92.94
2022-10-12T21:45:36.979Z,93.08
2022-10-12T21:49:38.281Z,93.24
2022-10-12T21:53:40.144Z,93.08
2022-10-12T21:57:41.805Z,93.71
2022-10-12T22:01:43.105Z,93.90
2022-10-12T22:05:44.625Z,94.11
2022-10-12T22:09:46.112Z,93.89
2022-10-12T22:13:48.061Z,93.92
2022-10-12T22:17:49.316Z,94.17
2022-10-12T22:21:51.493Z,94.15
2022-10-12T22:25:52.757Z,93.90
2022-10-12T22:29:54.037Z,94.06
2022-10-12T22:33:55.540Z,94.23
2022-10-12T22:37:57.081Z,93.99
2022-10-12T22:41:58.419Z,93.71
2022-10-12T22:46:00.111Z,93.81
2022-10-12T22:50:01.443Z,94.47
2022-10-12T22:54:03.276Z,94.14
2022-10-12T22:58:04.605Z,94.67
2022-10-12T23:02:06.556Z,94.93
2022-10-12T23:06:08.523Z,95.13
2022-10-12T23:10:09.910Z,95.26
2022-10-12T23:14:12.028Z,95.80
2022-10-12T23:18:13.341Z,95.63
2022-10-12T23:22:14.601Z,95.57
2022-10-12T23:26:17.408Z,95.53
2022-10-12T23:30:18.946Z,95.61
2022-10-12T23:34:20.192Z,95.61
2022-10-12T23:38:21.496Z,95.51
2022-10-12T23:42:23.057Z,95.69
2022-10-12T23:46:24.368Z,95.84
2022-10-12T23:50:25.620Z,96.13
2022-10-12T23:54:26.957Z,96.54
2022-10-12T23:58:28.481Z,96.53
